Date,TemperatureHighF,TemperatureAvgF,TemperatureLowF,DewpointHighF,DewpointAvgF,DewpointLowF,HumidityHigh,HumidityAvg,HumidityLow,PressureMaxIn,PressureMinIn,WindSpeedMaxMPH,WindSpeedAvgMPH,GustSpeedMaxMPH,PrecipitationSumIn
2013-1-1,28.3,25.7,23.2,22.3,18.3,15.4,83,73,62,30.16,30.03,15,3,18,0.00
2013-1-2,26.9,24.3,18.8,22.1,18.8,14.2,85,79,74,30.17,30.08,11,2,13,0.00
2013-1-3,31.5,25.9,16.6,27.9,21.3,11.6,90,83,75,30.18,30.07,16,3,20,0.00
2013-1-4,33.6,28.7,23.0,26.3,23.0,18.9,85,79,68,30.19,30.06,26,7,26,0.00
2013-1-5,39.6,31.1,24.2,32.6,26.7,21.7,93,84,65,30.23,29.96,15,2,18,0.00
2013-1-6,36.1,34.8,32.8,33.2,30.4,26.0,91,84,71,30.27,29.86,18,6,24,0.03
2013-1-7,38.2,32.3,25.3,27.5,25.5,22.0,88,76,60,30.34,30.11,25,3,25,0.00
2013-1-8,40.9,33.4,27.0,33.2,28.1,23.8,90,81,69,30.20,30.08,15,2,15,0.00
2013-1-9,49.1,40.7,33.5,36.8,31.7,27.0,88,72,44,30.42,29.97,35,8,35,0.02
2013-1-10,44.8,35.2,26.2,36.5,30.0,23.7,100,82,62,30.52,30.03,18,4,19,0.28
2013-1-11,55.5,47.1,38.1,52.4,44.8,36.3,96,92,84,30.03,29.70,20,6,20,0.52
2013-1-12,59.0,51.1,40.4,50.3,45.0,35.6,95,80,57,29.91,29.73,18,4,20,0.20
2013-1-13,40.5,34.0,25.7,38.3,32.2,21.3,100,93,83,30.10,29.78,20,5,26,0.28
2013-1-14,26.5,23.8,18.4,21.4,18.5,15.1,94,80,73,30.43,30.10,20,4,24,0.00
2013-1-15,30.7,23.4,17.6,23.5,18.6,14.7,91,82,68,30.42,30.14,6,1,10,0.00
2013-1-16,36.2,28.8,18.0,31.0,22.2,15.6,92,78,50,30.14,29.80,23,5,25,0.01
2013-1-17,36.2,30.5,23.9,31.2,22.4,13.5,82,72,60,30.32,29.96,24,6,26,0.00
2013-1-18,40.7,31.0,23.2,28.7,21.9,15.7,83,69,60,30.40,29.91,25,4,27,0.00
2013-1-19,47.4,42.6,37.9,37.5,32.9,28.6,75,68,62,29.91,29.61,34,9,40,0.02
2013-1-20,42.3,21.3,17.7,29.3,14.4,11.7,82,75,48,30.21,29.62,46,10,46,0.00
2013-1-21,19.7,14.4,8.3,14.7,10.9,5.2,89,86,73,30.17,30.02,23,6,26,0.00
2013-1-22,13.0,8.0,2.7,9.7,4.6,-0.7,92,86,81,30.30,30.16,20,3,21,0.00
2013-1-23,18.3,13.3,6.9,16.1,10.0,3.6,91,87,83,30.31,30.06,18,3,22,0.00
2013-1-24,20.9,13.4,3.0,13.2,7.6,-0.2,90,78,64,30.63,30.17,15,1,19,0.05
2013-1-25,25.1,20.6,15.9,23.1,16.0,6.6,95,82,66,30.46,29.98,12,2,14,0.00
2013-1-26,30.2,25.1,21.9,23.0,20.4,17.5,92,82,67,30.43,30.04,16,2,16,0.01
2013-1-27,33.8,27.5,20.9,32.5,23.6,17.9,100,85,74,30.43,30.00,21,4,27,0.00
2013-1-28,38.3,36.2,33.6,37.2,35.0,32.3,96,96,93,30.01,29.83,16,2,17,0.09
2013-1-29,59.0,40.2,-39.3,57.0,39.2,-43.1,97,96,80,30.11,29.47,20,2,23,0.41
2013-1-30,57.0,47.4,27.6,55.5,46.0,24.8,97,95,86,29.65,29.22,26,5,31,0.68
2013-1-31,27.7,20.6,16.4,25.3,17.7,14.0,93,88,77,29.94,29.47,27,9,27,0.00
2013-2-1,16.9,14.3,10.3,14.5,10.3,4.5,90,84,75,30.27,29.94,20,7,23,0.00
2013-2-2,23.9,17.3,11.5,21.4,13.8,8.2,91,86,76,30.20,29.97,15,2,18,0.00
2013-2-3,22.9,18.3,11.5,19.2,15.0,8.4,92,87,83,30.02,29.88,18,3,26,0.00
2013-2-4,26.3,22.2,17.8,23.9,19.6,15.1,98,89,85,30.01,29.85,9,1,10,0.00
2013-2-5,30.5,23.6,12.9,27.8,21.0,10.8,100,90,78,29.99,29.78,19,3,19,0.00
2013-2-6,35.7,28.5,19.7,26.2,22.7,17.0,92,79,61,30.24,29.99,17,2,17,0.06
2013-2-7,40.0,33.2,28.5,32.8,27.8,22.3,95,80,70,30.19,29.80,11,1,13,0.03
2013-2-8,33.1,29.6,19.1,31.8,26.1,16.4,96,87,73,30.36,29.80,16,2,17,0.15
2013-2-9,34.4,24.1,12.6,27.4,20.0,10.2,92,84,72,30.44,30.17,15,2,18,0.05
2013-2-10,44.9,35.6,27.7,43.8,32.0,24.1,96,87,77,30.17,29.55,19,4,22,0.08
2013-2-11,46.8,37.1,31.9,45.6,31.4,25.2,96,80,67,29.91,29.50,33,12,36,0.00
2013-2-12,31.9,30.2,28.8,25.9,24.7,23.1,82,80,75,30.06,29.91,20,6,27,0.00
2013-2-13,45.0,33.4,26.1,31.9,27.2,23.0,89,78,58,29.92,29.69,13,2,14,0.00
2013-2-14,41.9,36.1,31.5,36.2,32.2,28.8,93,86,76,29.88,29.63,27,5,32,0.00
2013-2-15,31.5,26.6,23.1,29.6,22.1,16.8,93,83,66,30.15,29.88,15,4,17,0.04
2013-2-16,23.3,20.6,16.7,20.8,16.7,12.7,91,85,68,30.11,30.03,20,4,24,0.00
2013-2-17,27.8,17.5,4.9,18.0,11.6,2.1,89,78,57,30.23,30.10,10,0,12,0.01
2013-2-18,50.8,36.8,22.6,44.4,29.9,17.2,95,77,61,30.13,29.42,18,5,24,0.20
2013-2-19,45.8,25.2,17.9,43.2,22.4,15.2,93,89,79,30.01,29.36,31,11,35,0.16
2013-2-20,20.8,18.6,17.5,18.1,15.7,14.6,89,88,86,30.21,30.01,16,7,21,0.00
2013-2-22,33.1,30.9,24.9,32.3,29.8,23.4,97,96,93,30.00,29.83,20,3,22,0.01
2013-2-23,34.4,28.6,26.8,32.9,24.4,21.8,97,84,78,30.02,29.85,19,4,20,0.00
2013-2-24,36.5,30.1,22.1,30.6,25.8,19.9,92,84,73,30.15,29.89,12,2,14,0.04
2013-2-25,41.8,29.9,18.9,31.4,24.0,17.2,95,80,57,30.22,30.04,10,1,10,0.03
2013-2-26,37.7,33.3,30.6,33.6,28.3,23.4,97,82,65,30.06,29.50,20,3,23,0.22
2013-2-27,36.4,34.7,34.4,35.4,33.7,33.1,97,96,94,29.79,29.55,4,0,7,0.37
2013-2-28,38.0,35.2,32.6,34.2,32.0,28.9,96,88,79,29.96,29.58,16,4,18,0.01
2013-3-1,33.4,29.5,25.3,31.1,23.6,19.4,91,78,71,30.13,29.95,14,3,15,0.00
2013-3-2,30.6,25.6,19.7,22.0,18.7,14.0,81,75,65,30.14,30.07,19,2,19,0.00
2013-3-3,33.7,25.5,17.6,20.9,17.9,14.4,87,73,54,30.10,30.01,19,4,25,0.00
2013-3-4,38.5,26.8,15.1,23.8,17.8,12.2,89,70,47,30.16,30.05,8,1,11,0.00
2013-3-5,36.8,31.1,27.4,29.5,22.5,18.7,90,71,56,30.08,29.77,21,5,24,0.00
2013-3-6,39.1,34.0,28.4,31.9,29.3,25.6,91,83,72,30.21,29.87,21,4,23,0.00
2013-3-7,38.5,34.5,27.8,30.4,27.1,22.7,89,75,57,30.40,30.20,11,3,13,0.00
2013-3-8,45.2,33.0,21.4,28.4,23.9,19.0,92,71,47,30.49,30.36,10,1,11,0.00
2013-3-9,45.9,38.6,29.6,38.3,31.3,24.0,85,75,62,30.37,29.93,24,4,24,0.00
2013-3-10,60.5,51.0,43.1,49.1,43.1,36.6,93,75,64,29.93,29.66,15,3,21,0.10
2013-3-11,55.5,46.8,35.6,50.1,43.9,33.2,97,90,66,29.66,29.45,21,3,25,0.15
2013-3-12,35.6,33.3,31.1,33.2,29.6,25.3,93,87,69,29.89,29.66,24,4,24,0.03
2013-3-13,32.0,28.0,24.6,29.2,22.0,16.8,93,79,61,30.25,29.87,23,6,27,0.01
2013-3-14,43.4,32.8,24.2,25.5,20.1,13.3,84,61,38,30.27,30.08,13,2,17,0.02
2013-3-15,44.2,36.3,32.2,37.1,32.4,24.9,95,86,69,30.08,29.79,13,2,18,0.13
2013-3-16,35.7,32.1,28.1,34.4,29.0,23.7,96,88,74,30.07,29.69,15,2,17,0.04
2013-3-17,35.3,30.6,27.0,23.7,21.4,17.9,82,69,56,30.24,30.06,18,4,21,0.00
2013-3-18,34.9,30.9,26.6,33.6,27.6,20.3,95,87,72,30.10,29.55,29,5,34,0.09
2013-3-19,31.9,25.8,21.5,28.4,20.1,17.2,92,79,63,29.98,29.65,29,9,31,0.00
2013-3-20,29.0,23.5,18.3,19.0,16.8,14.1,88,76,64,29.99,29.93,23,6,28,0.00
2013-3-21,30.4,24.1,15.8,26.8,20.3,13.1,91,85,71,29.99,29.91,20,4,21,0.01
2013-3-22,40.1,31.5,26.7,26.9,22.9,20.4,81,71,57,30.04,29.97,16,3,20,0.00
2013-3-23,36.3,29.9,24.2,26.7,23.5,20.9,87,77,66,30.13,30.02,7,1,8,0.00
2013-3-24,38.6,32.2,25.5,28.4,25.8,22.4,89,77,63,30.02,29.63,25,5,25,0.00
2013-3-25,39.1,35.5,31.9,33.2,29.4,25.9,87,78,68,29.95,29.58,24,6,24,0.00
2013-3-26,42.1,36.1,32.0,33.0,30.2,27.5,87,79,63,30.16,29.95,22,5,22,0.00
2013-3-27,45.7,38.1,31.4,33.3,27.6,22.9,91,68,47,30.25,30.15,23,6,26,0.00
2013-3-28,53.3,40.6,32.3,32.0,27.5,23.8,86,62,40,30.29,30.22,17,3,21,0.00
2013-3-29,54.3,39.4,25.0,31.4,24.7,21.8,89,59,33,30.28,30.20,16,2,18,0.00
2013-3-30,57.7,42.7,25.7,36.9,28.6,22.2,92,61,34,30.21,29.86,18,2,19,0.00
2013-3-31,56.7,47.5,39.5,43.3,38.9,32.2,94,73,52,29.86,29.62,26,6,29,0.04
2013-4-1,39.5,32.6,28.8,32.9,19.9,15.0,82,60,46,30.12,29.75,25,7,28,0.00
2013-4-2,40.1,32.2,25.0,23.9,19.4,13.8,84,62,36,30.26,30.11,23,5,28,0.00
2013-4-3,47.4,35.6,27.2,22.6,18.8,14.9,78,53,29,30.43,30.25,18,2,22,0.00
2013-4-4,58.4,43.3,28.8,27.1,23.0,19.4,78,48,25,30.33,29.90,19,2,22,0.00
2013-4-5,51.3,42.8,36.6,32.1,26.2,20.0,75,53,31,30.17,29.90,16,4,19,0.00
2013-4-6,61.0,48.9,37.0,41.8,32.4,25.7,71,54,40,30.15,29.65,26,8,34,0.00
2013-4-7,60.5,50.0,40.0,49.4,40.1,33.2,86,69,50,29.98,29.54,31,7,33,0.02
2013-4-8,64.4,46.8,38.4,55.6,41.7,32.8,95,83,63,29.98,29.61,34,6,40,0.15
2013-4-9,61.4,47.9,40.8,55.1,45.6,39.5,100,92,76,30.02,29.79,13,3,16,0.07
2013-4-10,45.7,42.3,39.8,43.8,40.5,37.9,100,93,90,30.03,29.80,27,5,31,0.35
2013-4-11,40.7,39.7,37.9,39.3,38.2,36.7,96,95,92,29.94,29.58,31,7,31,1.44
2013-4-12,46.4,40.1,36.7,38.3,36.6,33.7,97,88,67,29.77,29.53,23,5,26,0.12
2013-4-13,42.1,39.3,36.5,36.3,30.8,27.7,92,72,58,29.96,29.77,29,6,29,0.01
2013-4-14,57.6,44.2,34.8,45.8,36.2,28.8,84,74,58,30.05,29.80,23,5,28,0.02
2013-4-15,67.6,57.3,47.0,58.5,51.1,41.6,95,80,69,29.90,29.77,19,4,21,0.38
2013-4-16,56.4,48.3,43.0,45.5,39.6,32.9,96,74,44,30.21,29.88,16,4,21,0.27
2013-4-17,57.3,48.8,43.3,46.4,40.7,34.5,95,74,54,30.27,29.89,21,6,30,0.76
2013-4-18,72.9,58.5,47.3,66.3,56.4,45.6,97,93,77,29.89,29.43,26,5,29,0.66
2013-4-19,60.0,40.5,33.9,59.2,35.6,30.4,100,83,70,29.78,29.39,36,11,36,0.51
2013-4-20,40.8,34.9,29.7,32.6,23.5,16.1,93,64,40,30.43,29.77,21,7,25,0.01
2013-4-21,53.9,39.8,24.4,38.7,28.4,21.5,91,66,43,30.56,30.38,24,5,25,0.00
2013-4-22,66.5,51.6,35.3,39.0,34.6,30.3,83,56,31,30.38,30.09,17,4,19,0.00
2013-4-23,68.1,53.1,43.4,55.1,44.9,37.6,95,75,53,30.09,29.79,19,4,23,0.40
2013-4-24,45.5,40.3,35.7,42.2,33.0,24.7,95,77,45,30.10,29.78,23,7,26,0.13
2013-4-25,51.2,43.5,38.3,41.2,34.0,29.8,88,70,46,30.32,30.04,23,6,27,0.05
2013-4-26,65.4,50.9,35.1,43.0,37.1,31.6,88,62,40,30.39,30.25,19,4,25,0.00
2013-4-27,72.0,59.0,41.5,45.0,41.4,37.3,88,55,32,30.29,30.01,17,3,19,0.00
2013-4-28,60.0,56.2,52.3,55.0,49.2,39.5,93,79,53,30.01,29.79,11,3,13,0.03
2013-4-29,76.6,61.7,45.8,60.1,52.8,44.2,96,75,46,29.90,29.79,15,3,17,0.00
2013-4-30,80.0,67.5,55.6,64.6,58.7,53.4,94,75,56,29.95,29.82,23,8,29,0.30
2013-5-1,86.5,74.6,60.7,61.7,58.5,54.8,83,60,39,30.12,29.95,19,4,27,0.00
2013-5-2,86.2,72.8,61.6,61.3,57.8,55.0,81,61,41,30.14,30.01,18,4,19,0.00
2013-5-3,81.5,69.6,56.2,61.2,54.2,43.0,88,61,40,30.04,29.92,22,6,26,0.00
2013-5-4,76.4,66.8,61.1,52.1,45.6,38.7,61,47,28,30.01,29.93,23,7,23,0.00
2013-5-5,78.0,65.1,53.0,50.7,43.9,36.2,69,48,28,30.02,29.93,19,4,24,0.00
2013-5-6,78.3,64.6,49.2,51.4,44.2,36.2,76,51,25,30.00,29.90,13,2,14,0.00
2013-5-7,78.7,63.4,49.5,56.8,51.5,46.7,91,68,41,30.00,29.92,12,1,16,0.00
2013-5-8,84.3,66.9,52.3,59.4,54.1,49.8,94,67,35,29.98,29.89,13,2,15,0.02
2013-5-9,84.0,66.7,52.4,61.2,53.4,46.7,95,68,29,29.94,29.83,20,2,24,0.08
2013-5-10,62.9,54.9,46.0,61.5,53.4,44.7,97,95,90,29.88,29.70,16,4,19,0.20
2013-5-11,57.1,47.5,39.6,49.6,42.8,35.4,95,84,61,29.93,29.75,31,6,33,0.02
2013-5-12,47.3,41.4,35.7,36.5,31.9,28.5,90,70,52,30.10,29.92,24,8,29,0.00
2013-5-13,57.3,46.5,34.5,35.8,29.4,24.0,90,56,29,30.17,30.04,18,4,23,0.00
2013-5-14,83.0,65.6,49.2,58.2,46.1,30.9,60,50,42,30.04,29.61,27,5,27,0.00
2013-5-15,78.7,74.1,59.0,62.3,54.0,43.4,67,50,37,29.78,29.52,25,8,25,0.00
2013-5-16,84.8,68.9,49.7,52.7,49.1,46.0,89,54,29,29.94,29.77,19,4,22,0.00
2013-5-17,76.1,66.9,54.9,53.5,48.6,43.2,65,52,40,30.05,29.93,14,5,16,0.00
2013-5-18,85.6,71.3,57.8,62.4,53.3,42.3,66,53,43,30.08,29.92,13,4,15,0.00
2013-5-19,88.9,75.2,58.0,66.1,58.8,47.8,75,57,44,29.96,29.76,17,4,19,0.00
2013-5-20,89.8,79.7,69.6,72.0,67.2,63.3,86,67,43,29.81,29.68,22,6,25,0.00
2013-5-21,84.1,74.9,63.8,68.5,65.2,61.5,96,73,54,29.78,29.64,22,6,25,0.61
2013-5-22,74.9,67.9,61.5,67.6,64.8,59.5,96,90,76,29.67,29.59,19,4,22,0.96
2013-5-23,62.7,55.1,48.0,60.5,52.1,41.2,97,90,76,30.17,29.66,20,7,24,0.10
2013-5-24,61.8,50.3,37.8,45.0,40.4,35.1,91,70,48,30.35,30.17,18,5,20,0.00
2013-5-25,68.3,54.4,39.6,48.0,42.2,37.8,95,67,40,30.36,30.24,11,2,13,0.00
2013-5-26,73.1,59.0,42.2,47.4,42.1,36.9,93,59,30,30.31,30.15,13,3,14,0.00
2013-5-27,61.9,55.5,51.5,53.0,47.4,40.3,95,77,46,30.17,29.91,19,6,22,0.09
2013-5-28,79.7,68.3,54.4,71.4,63.8,53.0,98,86,70,29.92,29.72,20,5,23,1.32
2013-5-29,82.0,72.9,64.2,72.1,66.2,61.8,96,81,58,29.93,29.75,20,4,22,0.14
2013-5-30,88.6,78.9,69.6,71.5,68.4,64.2,92,71,51,29.95,29.83,21,4,24,0.00
2013-5-31,80.0,74.9,67.9,69.4,67.2,64.4,92,77,64,29.89,29.75,26,4,32,0.11
2013-6-1,80.0,72.0,63.5,68.0,64.9,59.8,94,79,61,29.77,29.62,21,3,27,0.15
2013-6-2,64.4,59.1,49.9,61.3,53.1,44.2,94,81,61,29.99,29.62,19,6,20,0.03
2013-6-3,69.8,56.5,42.1,49.5,43.7,39.6,93,65,41,30.07,29.98,14,2,17,0.00
2013-6-4,76.2,62.3,45.3,52.5,48.2,43.1,93,63,39,30.15,30.06,11,2,14,0.00
2013-6-5,74.5,65.6,58.3,52.0,47.3,39.5,73,53,31,30.11,29.92,15,3,15,0.00
2013-6-6,69.3,62.3,58.0,57.2,52.4,46.3,83,70,58,29.94,29.82,16,4,18,0.00
2013-6-7,71.3,60.6,50.6,55.2,52.0,48.2,93,75,52,29.91,29.82,13,3,15,0.00
2013-6-8,77.5,65.0,50.5,56.9,53.3,48.6,94,69,44,29.99,29.86,11,1,13,0.00
2013-6-9,81.6,70.9,59.0,66.0,60.6,54.2,87,71,55,30.01,29.83,15,4,18,0.00
2013-6-10,71.8,67.1,64.2,68.0,65.1,60.8,97,94,71,29.83,29.69,14,2,14,0.82
2013-6-11,84.5,70.5,59.0,68.6,63.8,58.2,98,81,56,29.89,29.77,11,2,18,0.00
2013-6-12,82.1,73.3,63.9,72.1,67.4,62.4,96,83,63,29.88,29.52,45,2,45,0.11
2013-6-13,78.4,68.8,60.8,65.4,60.2,57.0,97,76,51,29.92,29.54,21,6,33,0.08
2013-6-14,81.9,67.7,55.9,60.9,57.3,53.9,94,72,41,30.07,29.92,16,3,17,0.00
2013-6-15,77.9,66.9,56.8,66.0,61.4,54.8,94,83,61,30.03,29.84,19,2,19,0.04
2013-6-16,82.6,73.2,65.4,67.4,63.3,56.3,95,74,42,29.85,29.77,19,4,23,0.30
2013-6-17,90.7,76.1,60.1,65.9,59.8,55.4,93,61,33,29.87,29.79,19,2,21,0.00
2013-6-18,73.7,67.2,59.4,61.9,55.9,48.0,93,68,49,30.03,29.83,15,5,19,0.00
2013-6-19,80.1,65.5,48.8,52.9,48.2,43.9,90,57,34,30.13,30.02,11,2,13,0.00
2013-6-20,88.3,72.0,53.8,62.2,56.5,51.0,92,62,37,30.14,30.06,10,1,10,0.00
2013-6-21,88.9,77.4,64.1,66.4,63.3,60.2,88,64,45,30.12,29.88,25,2,29,0.00
2013-6-22,88.3,78.9,71.7,73.9,69.6,65.3,83,74,58,30.03,29.90,16,2,17,0.00
2013-6-23,91.7,81.6,70.7,72.6,68.6,65.6,86,66,48,30.00,29.88,19,2,22,0.00
2013-6-24,89.7,79.3,69.8,71.7,69.2,65.1,90,73,50,30.00,29.80,16,2,20,0.02
2013-6-25,84.7,73.5,65.8,75.1,68.8,64.3,98,86,72,29.98,29.75,14,1,16,2.89
2013-6-26,83.3,73.0,67.4,72.3,68.9,65.7,97,88,67,29.84,29.67,13,1,16,0.33
2013-6-27,86.1,75.7,68.6,73.5,70.2,67.4,98,84,58,29.71,29.60,21,3,25,0.00
2013-6-28,81.2,73.3,66.6,69.9,65.4,62.2,96,78,59,29.61,29.51,20,5,22,0.00
2013-6-29,76.4,68.9,62.2,65.3,62.7,59.9,96,81,64,29.69,29.50,13,2,17,0.00
2013-6-30,80.2,68.9,63.0,67.1,61.3,51.3,91,77,51,29.92,29.68,19,1,20,0.73
2013-7-1,75.9,65.9,54.7,59.3,53.5,46.3,81,65,47,30.03,29.91,21,4,21,0.00
2013-7-2,70.7,60.4,56.1,65.7,55.2,50.7,96,84,61,30.03,29.98,11,4,14,0.65
2013-7-3,82.5,76.3,64.9,67.8,65.7,62.8,95,71,57,30.03,29.96,14,2,14,0.01
2013-7-4,83.4,74.9,63.8,65.6,63.3,60.3,95,69,48,30.08,30.01,13,1,15,0.00
2013-7-5,87.3,76.2,64.2,68.9,64.3,56.2,96,70,37,30.06,29.98,10,1,13,0.00
2013-7-6,86.0,77.2,70.6,71.8,69.3,67.6,91,77,55,30.03,29.93,10,0,13,0.01
2013-7-7,88.4,77.4,69.1,73.3,70.2,66.1,92,80,56,29.99,29.90,12,1,14,0.02
2013-7-8,82.0,77.0,72.9,73.8,71.7,68.5,93,84,71,29.98,29.91,19,2,20,0.05
2013-7-9,72.5,71.2,70.2,70.7,69.9,69.2,97,96,94,29.93,29.91,0,0,5,0.00
2013-7-13,78.2,75.9,70.1,69.2,65.7,64.5,97,71,65,30.13,29.93,5,2,5,1.00
2013-7-22,85.7,81.2,65.4,70.5,69.2,64.2,96,67,52,30.11,29.69,12,2,16,0.44
2013-7-23,83.4,74.2,61.1,71.4,65.4,52.7,89,75,56,29.88,29.61,22,6,25,0.01
2013-7-24,74.7,64.4,52.6,56.5,52.7,49.2,90,67,47,30.01,29.88,17,2,17,0.00
2013-7-25,80.2,67.7,54.8,60.8,56.7,52.5,93,70,46,30.07,30.00,7,0,11,0.00
2013-7-26,79.2,70.3,63.5,63.5,61.2,58.2,89,74,56,30.03,29.84,16,2,18,0.01
2013-7-27,73.8,65.6,58.5,65.3,59.4,50.2,94,81,64,29.84,29.76,21,4,24,0.00
2013-7-28,68.4,59.5,54.6,57.7,53.4,50.9,94,81,59,29.94,29.78,20,3,21,0.43
2013-7-29,71.4,62.6,57.1,58.3,56.3,53.4,95,81,60,30.15,29.93,13,2,16,0.01
2013-7-30,81.8,68.0,51.4,64.1,58.5,50.0,96,74,50,30.19,30.05,8,1,10,0.01
2013-7-31,70.4,68.0,65.6,67.6,65.3,63.2,97,91,79,30.05,29.88,9,2,10,0.43
2013-8-1,79.2,69.3,63.0,66.4,60.6,56.0,95,76,47,29.91,29.87,21,3,22,0.00
2013-8-2,76.7,66.2,59.0,69.4,61.8,55.4,95,86,75,29.91,29.79,13,1,16,0.19
2013-8-3,79.9,69.3,59.0,66.6,59.6,54.9,95,74,44,30.04,29.87,17,2,18,0.00
2013-8-4,77.4,65.1,53.9,59.8,55.4,51.9,94,73,46,30.16,30.03,13,2,16,0.00
2013-8-5,74.8,63.5,51.7,64.8,56.6,49.7,94,79,54,30.09,29.89,9,1,11,0.02
2013-8-6,81.9,71.7,64.6,71.8,66.8,62.4,94,85,69,29.89,29.81,11,2,11,0.03
2013-8-7,81.8,72.3,64.6,76.2,69.0,62.5,94,89,73,29.88,29.76,30,1,32,1.58
2013-8-8,79.3,69.8,60.9,66.3,61.1,57.2,93,76,50,29.98,29.87,11,1,12,0.00
2013-8-9,82.2,71.4,57.9,65.9,61.0,55.6,93,71,48,29.96,29.91,14,1,14,0.00
2013-8-10,81.3,72.6,65.3,65.2,60.6,56.5,93,68,46,30.08,29.96,12,2,14,0.00
2013-8-11,80.5,69.6,59.7,63.7,59.9,56.9,93,73,49,30.08,30.00,12,2,15,0.00
2013-8-12,79.8,70.2,64.2,70.4,66.1,62.5,95,87,70,30.00,29.80,15,1,15,1.85
2013-8-13,68.9,62.3,55.6,65.0,54.1,49.4,94,76,53,30.08,29.84,19,4,19,0.01
2013-8-14,73.6,59.9,48.7,55.4,50.5,45.9,91,73,47,30.17,30.07,12,2,13,0.00
2013-8-15,77.3,62.1,49.2,59.2,53.0,47.0,92,75,49,30.14,30.05,16,1,16,0.00
2013-8-16,78.6,54.7,52.0,56.4,51.9,49.8,92,91,44,30.31,30.09,5,0,7,0.00